Barbourville, KY (40906)

2:48 PM EDT on July 26, 2016 (GMT -0400)
Mackey Bend | | Change Station

Elev 1010 ft 36.81 °N, 83.96 °W | Updated 2 minutes ago

Scattered Clouds
Scattered Clouds
90.5 °F
Feels Like 105 °F
N
0.0
Wind Variable Wind from ESE

Today
High -- | Low -- °F
--% Chance of Precip.
Yesterday
High -- | Low -- °F
Precip. -- in
Pressure 30.01 in
Visibility 10.0 miles
Clouds Few 3900 ft
Scattered Clouds 4600 ft
Heat Index 105 °F
Dew Point 78 °F
Humidity 67%
Rainfall 0.00 in
Snow Depth Not available.
6:36 AM 8:47 PM
Waning Gibbous, 52% visible
METAR KLOZ 261753Z AUTO VRB06KT 10SM FEW039 SCT046 32/21 A3006 RMK AO2 SLP163 T03220206 10328 20222 58009
Pressure 30.01 in
Visibility 10.0 miles
Clouds Few 3900 ft
Scattered Clouds 4600 ft
Heat Index 105 °F
Dew Point 78 °F
Humidity 67%
Rainfall 0.00 in
Snow Depth Not available.
6:36 AM 8:47 PM
Waning Gibbous, 52% visible
METAR KLOZ 261753Z AUTO VRB06KT 10SM FEW039 SCT046 32/21 A3006 RMK AO2 SLP163 T03220206 10328 20222 58009

10-Day Weather Forecast

Almanac

Astronomy

Jul. 26, 2016 Rise Set
Actual Time
Civil Twilight
Nautical Twilight
Astronomical Twilight
Moon
Length of Visible Light
Length of Day
Tomorrow will be .
, % of the Moon is Illuminated

Today's Extremes

State Highs State Lows

Community

WunderPhotos

Upload Photos

1,927,653 photos uploaded!

WunderBlog® & News

Nearby

Air Quality

  Air Quality AQ Index Pollutant
Not available.

Snow Depth

Station Depth Elevation

Earthquake Activity

City Distance Mag. Time & Date
Minimum magnitude displayed is 2.5.

Coastal Water Temperatures

Place Temperature

Stations

Nearby Weather Stations

Station Location Temp. Windchill Dew Point Humidity Wind Precip. Elev Updated Type
                   

Watches & Warnings

There are currently no watches in effect.